Dogwood City, Texas
Current Conditions -  °F | °C
As of 6:53 AM on Thursday 18 Dec 2014 (Local Time) from KTYR Reporting Station
Haze Haze  
Wind Chill: 40°   Ceiling: 300
Heat Index: 44°   Visibility: 5mi
Dew Point: 42°   Wind: 7mph
Humidity: 93%   Direction: 90°E
Pressure: 30.14"   Gusts: NA
Location:  32.2242°N, 95.404°W
Report Text: KTYR 181253Z 09006KT 5SM BR OVC003 07/06 A3014 RMK AO2 SLP205 T00670056
Loading
Personal Weather Stations






























Interactive Weather Map New forecast layout! Learn more

10-Day Weather Forecast

Advertisements
Track Severe Weather on mobile